sensor_id;sensor_type;location;lat;lon;timestamp;P1;durP1;ratioP1;P2;durP2;ratioP2
19525;SDS011;9907;42.676;26.348;2024-03-08T00:00:15;9.00;;;8.10;;
19525;SDS011;9907;42.676;26.348;2024-03-08T00:02:46;8.40;;;7.57;;
19525;SDS011;9907;42.676;26.348;2024-03-08T00:05:12;9.00;;;7.83;;
19525;SDS011;9907;42.676;26.348;2024-03-08T00:07:51;8.17;;;7.40;;
19525;SDS011;9907;42.676;26.348;2024-03-08T00:10:18;8.37;;;7.57;;
19525;SDS011;9907;42.676;26.348;2024-03-08T00:12:47;8.67;;;7.30;;
19525;SDS011;9907;42.676;26.348;2024-03-08T00:15:13;8.50;;;7.23;;
19525;SDS011;9907;42.676;26.348;2024-03-08T00:17:41;8.13;;;7.27;;
19525;SDS011;9907;42.676;26.348;2024-03-08T00:20:07;8.10;;;7.30;;
19525;SDS011;9907;42.676;26.348;2024-03-08T00:22:37;8.03;;;7.23;;
19525;SDS011;9907;42.676;26.348;2024-03-08T00:25:03;7.33;;;6.63;;
19525;SDS011;9907;42.676;26.348;2024-03-08T00:27:30;7.57;;;6.77;;
19525;SDS011;9907;42.676;26.348;2024-03-08T00:30:00;7.37;;;6.53;;
19525;SDS011;9907;42.676;26.348;2024-03-08T00:32:27;8.03;;;7.23;;
19525;SDS011;9907;42.676;26.348;2024-03-08T00:34:52;7.70;;;7.00;;
19525;SDS011;9907;42.676;26.348;2024-03-08T00:37:21;7.60;;;6.90;;
19525;SDS011;9907;42.676;26.348;2024-03-08T00:39:52;7.47;;;6.73;;
19525;SDS011;9907;42.676;26.348;2024-03-08T00:45:40;8.27;;;7.03;;
19525;SDS011;9907;42.676;26.348;2024-03-08T00:48:37;7.77;;;7.07;;
19525;SDS011;9907;42.676;26.348;2024-03-08T00:51:02;9.23;;;7.10;;
19525;SDS011;9907;42.676;26.348;2024-03-08T00:53:28;9.23;;;8.00;;
19525;SDS011;9907;42.676;26.348;2024-03-08T00:55:54;9.30;;;8.33;;
19525;SDS011;9907;42.676;26.348;2024-03-08T00:58:20;8.43;;;7.57;;
19525;SDS011;9907;42.676;26.348;2024-03-08T01:03:24;8.63;;;7.83;;
19525;SDS011;9907;42.676;26.348;2024-03-08T01:08:53;9.00;;;7.67;;
19525;SDS011;9907;42.676;26.348;2024-03-08T01:11:18;8.93;;;8.07;;
19525;SDS011;9907;42.676;26.348;2024-03-08T01:13:44;9.77;;;7.83;;
19525;SDS011;9907;42.676;26.348;2024-03-08T01:16:12;8.97;;;8.07;;
19525;SDS011;9907;42.676;26.348;2024-03-08T01:18:38;8.20;;;7.33;;
19525;SDS011;9907;42.676;26.348;2024-03-08T01:21:04;8.37;;;7.57;;
19525;SDS011;9907;42.676;26.348;2024-03-08T01:23:30;8.20;;;7.40;;
19525;SDS011;9907;42.676;26.348;2024-03-08T01:25:56;8.67;;;7.77;;
19525;SDS011;9907;42.676;26.348;2024-03-08T01:31:26;8.10;;;7.30;;
19525;SDS011;9907;42.676;26.348;2024-03-08T01:33:59;8.93;;;7.70;;
19525;SDS011;9907;42.676;26.348;2024-03-08T01:39:14;8.90;;;8.00;;
19525;SDS011;9907;42.676;26.348;2024-03-08T01:41:54;8.90;;;8.10;;
19525;SDS011;9907;42.676;26.348;2024-03-08T01:44:23;9.47;;;8.40;;
19525;SDS011;9907;42.676;26.348;2024-03-08T01:47:02;8.87;;;8.07;;
19525;SDS011;9907;42.676;26.348;2024-03-08T01:49:29;10.60;;;8.67;;
19525;SDS011;9907;42.676;26.348;2024-03-08T01:52:06;9.90;;;8.90;;
19525;SDS011;9907;42.676;26.348;2024-03-08T01:54:32;9.67;;;8.67;;
19525;SDS011;9907;42.676;26.348;2024-03-08T01:57:11;9.30;;;8.40;;
19525;SDS011;9907;42.676;26.348;2024-03-08T01:59:42;8.63;;;7.67;;
19525;SDS011;9907;42.676;26.348;2024-03-08T02:02:08;13.10;;;8.60;;
19525;SDS011;9907;42.676;26.348;2024-03-08T02:04:36;8.87;;;7.60;;
19525;SDS011;9907;42.676;26.348;2024-03-08T02:07:03;7.97;;;7.23;;
19525;SDS011;9907;42.676;26.348;2024-03-08T02:09:30;8.70;;;7.87;;
19525;SDS011;9907;42.676;26.348;2024-03-08T02:11:57;9.97;;;8.50;;
19525;SDS011;9907;42.676;26.348;2024-03-08T02:14:22;9.50;;;8.40;;
19525;SDS011;9907;42.676;26.348;2024-03-08T02:16:48;9.07;;;8.17;;
19525;SDS011;9907;42.676;26.348;2024-03-08T02:19:16;10.17;;;9.07;;
19525;SDS011;9907;42.676;26.348;2024-03-08T02:21:41;9.83;;;8.50;;
19525;SDS011;9907;42.676;26.348;2024-03-08T02:24:08;10.80;;;9.23;;
19525;SDS011;9907;42.676;26.348;2024-03-08T02:26:38;9.73;;;8.80;;
19525;SDS011;9907;42.676;26.348;2024-03-08T02:29:04;10.30;;;9.30;;
19525;SDS011;9907;42.676;26.348;2024-03-08T02:31:35;10.33;;;8.90;;
19525;SDS011;9907;42.676;26.348;2024-03-08T02:34:01;10.43;;;9.40;;
19525;SDS011;9907;42.676;26.348;2024-03-08T02:36:26;10.07;;;9.10;;
19525;SDS011;9907;42.676;26.348;2024-03-08T02:38:52;10.30;;;9.30;;
19525;SDS011;9907;42.676;26.348;2024-03-08T02:41:17;10.37;;;9.27;;
19525;SDS011;9907;42.676;26.348;2024-03-08T02:43:48;9.80;;;8.80;;
19525;SDS011;9907;42.676;26.348;2024-03-08T02:46:15;11.17;;;9.97;;
19525;SDS011;9907;42.676;26.348;2024-03-08T02:48:41;9.53;;;8.63;;
19525;SDS011;9907;42.676;26.348;2024-03-08T02:51:06;10.60;;;9.50;;
19525;SDS011;9907;42.676;26.348;2024-03-08T02:53:32;11.37;;;10.20;;
19525;SDS011;9907;42.676;26.348;2024-03-08T02:55:57;10.53;;;9.53;;
19525;SDS011;9907;42.676;26.348;2024-03-08T02:58:22;11.77;;;10.57;;
19525;SDS011;9907;42.676;26.348;2024-03-08T03:00:48;12.43;;;10.97;;
19525;SDS011;9907;42.676;26.348;2024-03-08T03:03:13;11.47;;;10.23;;
19525;SDS011;9907;42.676;26.348;2024-03-08T03:05:40;11.60;;;10.07;;
19525;SDS011;9907;42.676;26.348;2024-03-08T03:08:08;12.07;;;10.17;;
19525;SDS011;9907;42.676;26.348;2024-03-08T03:10:37;11.23;;;10.17;;
19525;SDS011;9907;42.676;26.348;2024-03-08T03:13:03;10.77;;;9.67;;
19525;SDS011;9907;42.676;26.348;2024-03-08T03:15:29;10.90;;;9.47;;
19525;SDS011;9907;42.676;26.348;2024-03-08T03:18:01;11.17;;;9.77;;
19525;SDS011;9907;42.676;26.348;2024-03-08T03:20:29;11.43;;;10.20;;
19525;SDS011;9907;42.676;26.348;2024-03-08T03:23:05;10.27;;;9.20;;
19525;SDS011;9907;42.676;26.348;2024-03-08T03:25:34;10.20;;;9.10;;
19525;SDS011;9907;42.676;26.348;2024-03-08T03:28:03;9.63;;;8.63;;
19525;SDS011;9907;42.676;26.348;2024-03-08T03:30:29;10.67;;;9.57;;
19525;SDS011;9907;42.676;26.348;2024-03-08T03:32:58;10.30;;;9.30;;
19525;SDS011;9907;42.676;26.348;2024-03-08T03:35:31;9.90;;;8.90;;
19525;SDS011;9907;42.676;26.348;2024-03-08T03:37:57;9.93;;;8.13;;
19525;SDS011;9907;42.676;26.348;2024-03-08T03:40:36;8.30;;;7.50;;
19525;SDS011;9907;42.676;26.348;2024-03-08T03:43:17;10.23;;;8.43;;
19525;SDS011;9907;42.676;26.348;2024-03-08T03:45:43;9.40;;;8.17;;
19525;SDS011;9907;42.676;26.348;2024-03-08T03:48:08;10.33;;;9.33;;
19525;SDS011;9907;42.676;26.348;2024-03-08T03:50:34;9.83;;;8.83;;
19525;SDS011;9907;42.676;26.348;2024-03-08T03:53:00;10.30;;;9.30;;
19525;SDS011;9907;42.676;26.348;2024-03-08T03:55:27;11.03;;;9.60;;
19525;SDS011;9907;42.676;26.348;2024-03-08T03:58:03;10.23;;;9.23;;
19525;SDS011;9907;42.676;26.348;2024-03-08T04:00:52;13.13;;;10.50;;
19525;SDS011;9907;42.676;26.348;2024-03-08T04:03:18;12.77;;;10.23;;
19525;SDS011;9907;42.676;26.348;2024-03-08T04:05:45;12.70;;;10.33;;
19525;SDS011;9907;42.676;26.348;2024-03-08T04:08:12;12.30;;;9.63;;
19525;SDS011;9907;42.676;26.348;2024-03-08T04:10:38;11.20;;;9.63;;
19525;SDS011;9907;42.676;26.348;2024-03-08T04:13:03;12.23;;;10.40;;
19525;SDS011;9907;42.676;26.348;2024-03-08T04:15:29;13.87;;;10.23;;
19525;SDS011;9907;42.676;26.348;2024-03-08T04:17:55;12.03;;;10.37;;
19525;SDS011;9907;42.676;26.348;2024-03-08T04:20:22;11.60;;;10.40;;
19525;SDS011;9907;42.676;26.348;2024-03-08T04:22:47;12.33;;;10.97;;
19525;SDS011;9907;42.676;26.348;2024-03-08T04:25:14;12.67;;;10.77;;
19525;SDS011;9907;42.676;26.348;2024-03-08T04:27:39;12.97;;;10.97;;
19525;SDS011;9907;42.676;26.348;2024-03-08T04:30:06;13.47;;;10.80;;
19525;SDS011;9907;42.676;26.348;2024-03-08T04:32:34;12.93;;;11.23;;
19525;SDS011;9907;42.676;26.348;2024-03-08T04:35:00;18.07;;;12.50;;
19525;SDS011;9907;42.676;26.348;2024-03-08T04:37:26;12.83;;;11.43;;
19525;SDS011;9907;42.676;26.348;2024-03-08T04:39:54;14.07;;;11.77;;
19525;SDS011;9907;42.676;26.348;2024-03-08T04:42:20;13.80;;;11.43;;
19525;SDS011;9907;42.676;26.348;2024-03-08T04:44:46;12.50;;;10.80;;
19525;SDS011;9907;42.676;26.348;2024-03-08T04:47:11;12.97;;;11.50;;
19525;SDS011;9907;42.676;26.348;2024-03-08T04:49:37;12.37;;;11.17;;
19525;SDS011;9907;42.676;26.348;2024-03-08T04:52:02;13.90;;;11.43;;
19525;SDS011;9907;42.676;26.348;2024-03-08T04:54:28;12.00;;;10.73;;
19525;SDS011;9907;42.676;26.348;2024-03-08T04:56:59;13.73;;;11.47;;
19525;SDS011;9907;42.676;26.348;2024-03-08T04:59:32;13.03;;;11.70;;
19525;SDS011;9907;42.676;26.348;2024-03-08T05:01:58;12.13;;;10.47;;
19525;SDS011;9907;42.676;26.348;2024-03-08T05:04:25;14.10;;;11.23;;
19525;SDS011;9907;42.676;26.348;2024-03-08T05:06:52;13.77;;;11.33;;
19525;SDS011;9907;42.676;26.348;2024-03-08T05:09:21;13.27;;;11.87;;
19525;SDS011;9907;42.676;26.348;2024-03-08T05:11:51;12.83;;;10.73;;
19525;SDS011;9907;42.676;26.348;2024-03-08T05:14:41;13.87;;;11.80;;
19525;SDS011;9907;42.676;26.348;2024-03-08T05:17:15;14.43;;;11.07;;
19525;SDS011;9907;42.676;26.348;2024-03-08T05:19:47;12.97;;;11.67;;
19525;SDS011;9907;42.676;26.348;2024-03-08T05:22:13;13.67;;;11.83;;
19525;SDS011;9907;42.676;26.348;2024-03-08T05:24:39;14.50;;;11.60;;
19525;SDS011;9907;42.676;26.348;2024-03-08T05:27:04;21.73;;;13.37;;
19525;SDS011;9907;42.676;26.348;2024-03-08T05:29:30;14.07;;;11.87;;
19525;SDS011;9907;42.676;26.348;2024-03-08T05:31:55;12.93;;;11.17;;
19525;SDS011;9907;42.676;26.348;2024-03-08T05:34:25;12.90;;;11.50;;
19525;SDS011;9907;42.676;26.348;2024-03-08T05:36:54;13.50;;;11.03;;
19525;SDS011;9907;42.676;26.348;2024-03-08T05:39:19;13.67;;;11.90;;
19525;SDS011;9907;42.676;26.348;2024-03-08T05:41:45;8.80;;;7.83;;
19525;SDS011;9907;42.676;26.348;2024-03-08T05:44:11;7.53;;;6.83;;
19525;SDS011;9907;42.676;26.348;2024-03-08T05:46:38;6.07;;;5.47;;
19525;SDS011;9907;42.676;26.348;2024-03-08T05:49:04;6.37;;;5.77;;
19525;SDS011;9907;42.676;26.348;2024-03-08T05:51:34;6.60;;;5.93;;
19525;SDS011;9907;42.676;26.348;2024-03-08T05:54:03;7.37;;;6.67;;
19525;SDS011;9907;42.676;26.348;2024-03-08T05:56:36;6.67;;;5.93;;
19525;SDS011;9907;42.676;26.348;2024-03-08T05:59:03;6.83;;;6.23;;
19525;SDS011;9907;42.676;26.348;2024-03-08T06:01:29;6.40;;;5.40;;
19525;SDS011;9907;42.676;26.348;2024-03-08T06:03:55;6.40;;;5.80;;
19525;SDS011;9907;42.676;26.348;2024-03-08T06:06:25;7.60;;;6.37;;
19525;SDS011;9907;42.676;26.348;2024-03-08T06:08:51;5.90;;;5.27;;
19525;SDS011;9907;42.676;26.348;2024-03-08T06:11:18;8.80;;;6.53;;
19525;SDS011;9907;42.676;26.348;2024-03-08T06:13:48;6.50;;;5.90;;
19525;SDS011;9907;42.676;26.348;2024-03-08T06:16:17;7.73;;;6.53;;
19525;SDS011;9907;42.676;26.348;2024-03-08T06:18:43;8.53;;;6.93;;
19525;SDS011;9907;42.676;26.348;2024-03-08T06:21:12;8.10;;;7.30;;
19525;SDS011;9907;42.676;26.348;2024-03-08T06:23:38;6.17;;;5.57;;
19525;SDS011;9907;42.676;26.348;2024-03-08T06:26:08;6.17;;;5.57;;
19525;SDS011;9907;42.676;26.348;2024-03-08T06:31:32;5.73;;;5.23;;
19525;SDS011;9907;42.676;26.348;2024-03-08T06:33:57;6.70;;;5.70;;
19525;SDS011;9907;42.676;26.348;2024-03-08T06:36:23;6.37;;;5.63;;
19525;SDS011;9907;42.676;26.348;2024-03-08T06:38:49;6.73;;;5.97;;
19525;SDS011;9907;42.676;26.348;2024-03-08T06:41:18;6.60;;;6.00;;
19525;SDS011;9907;42.676;26.348;2024-03-08T06:43:44;7.70;;;6.90;;
19525;SDS011;9907;42.676;26.348;2024-03-08T06:46:14;11.47;;;9.33;;
19525;SDS011;9907;42.676;26.348;2024-03-08T06:48:43;12.10;;;8.87;;
19525;SDS011;9907;42.676;26.348;2024-03-08T06:51:10;8.60;;;6.63;;
19525;SDS011;9907;42.676;26.348;2024-03-08T06:53:36;9.27;;;6.80;;
19525;SDS011;9907;42.676;26.348;2024-03-08T06:56:03;9.07;;;7.57;;
19525;SDS011;9907;42.676;26.348;2024-03-08T06:58:38;6.70;;;5.43;;
19525;SDS011;9907;42.676;26.348;2024-03-08T07:01:07;5.97;;;5.17;;
19525;SDS011;9907;42.676;26.348;2024-03-08T07:03:38;6.70;;;5.70;;
19525;SDS011;9907;42.676;26.348;2024-03-08T07:06:14;6.77;;;6.10;;
19525;SDS011;9907;42.676;26.348;2024-03-08T07:09:01;12.07;;;8.10;;
19525;SDS011;9907;42.676;26.348;2024-03-08T07:11:27;17.30;;;14.07;;
19525;SDS011;9907;42.676;26.348;2024-03-08T07:13:53;24.10;;;19.87;;
19525;SDS011;9907;42.676;26.348;2024-03-08T07:16:19;23.33;;;17.47;;
19525;SDS011;9907;42.676;26.348;2024-03-08T07:18:46;24.00;;;19.27;;
19525;SDS011;9907;42.676;26.348;2024-03-08T07:21:19;24.27;;;18.50;;
19525;SDS011;9907;42.676;26.348;2024-03-08T07:23:45;26.87;;;19.40;;
19525;SDS011;9907;42.676;26.348;2024-03-08T07:26:27;25.23;;;18.80;;
19525;SDS011;9907;42.676;26.348;2024-03-08T07:28:56;22.77;;;17.43;;
19525;SDS011;9907;42.676;26.348;2024-03-08T07:31:22;18.83;;;16.73;;
19525;SDS011;9907;42.676;26.348;2024-03-08T07:33:51;20.47;;;16.03;;
19525;SDS011;9907;42.676;26.348;2024-03-08T07:36:18;19.50;;;15.30;;
19525;SDS011;9907;42.676;26.348;2024-03-08T07:38:47;21.47;;;16.33;;
19525;SDS011;9907;42.676;26.348;2024-03-08T07:41:15;20.40;;;15.20;;
19525;SDS011;9907;42.676;26.348;2024-03-08T07:43:59;16.17;;;13.73;;
19525;SDS011;9907;42.676;26.348;2024-03-08T07:46:28;13.53;;;12.03;;
19525;SDS011;9907;42.676;26.348;2024-03-08T07:48:56;14.30;;;12.60;;
19525;SDS011;9907;42.676;26.348;2024-03-08T07:51:22;14.93;;;12.93;;
19525;SDS011;9907;42.676;26.348;2024-03-08T07:53:56;13.13;;;11.73;;
19525;SDS011;9907;42.676;26.348;2024-03-08T07:56:25;16.63;;;12.17;;
19525;SDS011;9907;42.676;26.348;2024-03-08T07:58:51;14.90;;;12.80;;
19525;SDS011;9907;42.676;26.348;2024-03-08T08:04:39;15.67;;;11.20;;
19525;SDS011;9907;42.676;26.348;2024-03-08T08:07:04;16.03;;;12.67;;
19525;SDS011;9907;42.676;26.348;2024-03-08T08:09:37;13.77;;;12.33;;
19525;SDS011;9907;42.676;26.348;2024-03-08T08:12:03;13.70;;;12.23;;
19525;SDS011;9907;42.676;26.348;2024-03-08T08:14:35;15.57;;;13.87;;
19525;SDS011;9907;42.676;26.348;2024-03-08T08:17:03;14.10;;;12.00;;
19525;SDS011;9907;42.676;26.348;2024-03-08T08:19:40;13.20;;;11.80;;
19525;SDS011;9907;42.676;26.348;2024-03-08T08:22:08;13.43;;;11.80;;
19525;SDS011;9907;42.676;26.348;2024-03-08T08:24:36;15.13;;;11.57;;
19525;SDS011;9907;42.676;26.348;2024-03-08T08:27:04;12.00;;;10.83;;
19525;SDS011;9907;42.676;26.348;2024-03-08T08:29:38;13.53;;;11.90;;
19525;SDS011;9907;42.676;26.348;2024-03-08T08:32:06;14.27;;;11.40;;
19525;SDS011;9907;42.676;26.348;2024-03-08T08:34:35;13.03;;;11.63;;
19525;SDS011;9907;42.676;26.348;2024-03-08T08:37:03;14.00;;;11.37;;
19525;SDS011;9907;42.676;26.348;2024-03-08T08:39:37;13.00;;;11.70;;
19525;SDS011;9907;42.676;26.348;2024-03-08T08:42:03;16.00;;;12.83;;
19525;SDS011;9907;42.676;26.348;2024-03-08T08:44:36;17.70;;;13.13;;
19525;SDS011;9907;42.676;26.348;2024-03-08T08:47:03;15.03;;;13.40;;
19525;SDS011;9907;42.676;26.348;2024-03-08T08:49:36;15.97;;;13.63;;
19525;SDS011;9907;42.676;26.348;2024-03-08T08:52:02;16.53;;;14.73;;
19525;SDS011;9907;42.676;26.348;2024-03-08T08:54:36;17.90;;;15.13;;
19525;SDS011;9907;42.676;26.348;2024-03-08T08:57:01;16.30;;;14.67;;
19525;SDS011;9907;42.676;26.348;2024-03-08T08:59:36;34.43;;;26.20;;
19525;SDS011;9907;42.676;26.348;2024-03-08T09:02:04;33.10;;;26.53;;
19525;SDS011;9907;42.676;26.348;2024-03-08T09:04:36;26.80;;;19.67;;
19525;SDS011;9907;42.676;26.348;2024-03-08T09:07:02;24.13;;;19.07;;
19525;SDS011;9907;42.676;26.348;2024-03-08T09:09:34;22.53;;;19.53;;
19525;SDS011;9907;42.676;26.348;2024-03-08T09:12:23;24.87;;;19.17;;
19525;SDS011;9907;42.676;26.348;2024-03-08T09:17:38;23.40;;;19.40;;
19525;SDS011;9907;42.676;26.348;2024-03-08T09:20:06;24.40;;;19.80;;
19525;SDS011;9907;42.676;26.348;2024-03-08T09:22:34;24.10;;;19.90;;
19525;SDS011;9907;42.676;26.348;2024-03-08T09:24:59;18.63;;;15.73;;
19525;SDS011;9907;42.676;26.348;2024-03-08T09:27:33;20.00;;;15.43;;
19525;SDS011;9907;42.676;26.348;2024-03-08T09:30:02;23.13;;;16.13;;
19525;SDS011;9907;42.676;26.348;2024-03-08T09:32:38;34.70;;;20.00;;
19525;SDS011;9907;42.676;26.348;2024-03-08T09:35:04;20.90;;;16.53;;
19525;SDS011;9907;42.676;26.348;2024-03-08T09:37:32;17.90;;;13.77;;
19525;SDS011;9907;42.676;26.348;2024-03-08T09:40:04;15.07;;;11.17;;
19525;SDS011;9907;42.676;26.348;2024-03-08T09:42:34;13.27;;;11.90;;
19525;SDS011;9907;42.676;26.348;2024-03-08T09:45:04;13.97;;;11.33;;
19525;SDS011;9907;42.676;26.348;2024-03-08T09:47:40;12.50;;;10.93;;
19525;SDS011;9907;42.676;26.348;2024-03-08T09:50:07;20.07;;;14.50;;
19525;SDS011;9907;42.676;26.348;2024-03-08T09:52:37;14.97;;;13.10;;
19525;SDS011;9907;42.676;26.348;2024-03-08T09:55:05;21.63;;;12.47;;
19525;SDS011;9907;42.676;26.348;2024-03-08T09:57:51;15.80;;;11.37;;
19525;SDS011;9907;42.676;26.348;2024-03-08T10:00:38;14.27;;;10.87;;
19525;SDS011;9907;42.676;26.348;2024-03-08T10:03:03;15.03;;;10.57;;
19525;SDS011;9907;42.676;26.348;2024-03-08T10:05:30;11.17;;;9.97;;
19525;SDS011;9907;42.676;26.348;2024-03-08T10:07:58;12.33;;;9.70;;
19525;SDS011;9907;42.676;26.348;2024-03-08T10:10:23;11.73;;;9.97;;
19525;SDS011;9907;42.676;26.348;2024-03-08T10:15:27;12.37;;;10.50;;
19525;SDS011;9907;42.676;26.348;2024-03-08T10:17:55;12.90;;;11.27;;
19525;SDS011;9907;42.676;26.348;2024-03-08T10:20:39;17.77;;;12.60;;
19525;SDS011;9907;42.676;26.348;2024-03-08T10:23:05;21.37;;;15.03;;
19525;SDS011;9907;42.676;26.348;2024-03-08T10:28:05;25.27;;;17.57;;
19525;SDS011;9907;42.676;26.348;2024-03-08T10:30:51;27.40;;;21.03;;
19525;SDS011;9907;42.676;26.348;2024-03-08T10:33:16;24.13;;;18.70;;
19525;SDS011;9907;42.676;26.348;2024-03-08T10:35:41;19.00;;;16.03;;
19525;SDS011;9907;42.676;26.348;2024-03-08T10:38:07;22.13;;;15.17;;
19525;SDS011;9907;42.676;26.348;2024-03-08T10:40:36;22.13;;;15.20;;
19525;SDS011;9907;42.676;26.348;2024-03-08T10:48:53;12.33;;;10.77;;
19525;SDS011;9907;42.676;26.348;2024-03-08T10:51:23;14.00;;;10.27;;
19525;SDS011;9907;42.676;26.348;2024-03-08T10:53:50;11.90;;;10.33;;
19525;SDS011;9907;42.676;26.348;2024-03-08T10:56:17;12.77;;;10.13;;
19525;SDS011;9907;42.676;26.348;2024-03-08T10:58:43;15.13;;;11.10;;
19525;SDS011;9907;42.676;26.348;2024-03-08T11:01:09;11.63;;;10.37;;
19525;SDS011;9907;42.676;26.348;2024-03-08T11:03:46;12.63;;;10.27;;
19525;SDS011;9907;42.676;26.348;2024-03-08T11:12:19;10.43;;;8.53;;
19525;SDS011;9907;42.676;26.348;2024-03-08T11:14:50;13.10;;;10.23;;
19525;SDS011;9907;42.676;26.348;2024-03-08T11:17:26;9.30;;;8.27;;
19525;SDS011;9907;42.676;26.348;2024-03-08T11:19:52;14.47;;;10.00;;
19525;SDS011;9907;42.676;26.348;2024-03-08T11:22:29;12.67;;;10.00;;
19525;SDS011;9907;42.676;26.348;2024-03-08T11:25:08;10.57;;;9.17;;
19525;SDS011;9907;42.676;26.348;2024-03-08T11:43:06;6.67;;;5.53;;
19525;SDS011;9907;42.676;26.348;2024-03-08T11:45:37;6.13;;;5.53;;
19525;SDS011;9907;42.676;26.348;2024-03-08T11:51:30;9.70;;;8.50;;
19525;SDS011;9907;42.676;26.348;2024-03-08T11:56:51;7.93;;;7.13;;
19525;SDS011;9907;42.676;26.348;2024-03-08T11:59:17;7.33;;;6.50;;
19525;SDS011;9907;42.676;26.348;2024-03-08T12:01:43;9.37;;;7.67;;
19525;SDS011;9907;42.676;26.348;2024-03-08T12:07:11;11.63;;;8.07;;
19525;SDS011;9907;42.676;26.348;2024-03-08T12:09:37;12.97;;;9.90;;
19525;SDS011;9907;42.676;26.348;2024-03-08T12:15:41;10.23;;;8.93;;
19525;SDS011;9907;42.676;26.348;2024-03-08T12:18:53;9.97;;;8.27;;
19525;SDS011;9907;42.676;26.348;2024-03-08T12:21:21;8.47;;;6.23;;
19525;SDS011;9907;42.676;26.348;2024-03-08T12:23:53;8.27;;;5.57;;
19525;SDS011;9907;42.676;26.348;2024-03-08T12:26:41;6.27;;;5.57;;
19525;SDS011;9907;42.676;26.348;2024-03-08T12:49:11;6.80;;;5.73;;
19525;SDS011;9907;42.676;26.348;2024-03-08T12:54:36;13.47;;;8.30;;
19525;SDS011;9907;42.676;26.348;2024-03-08T12:57:06;7.10;;;6.30;;
19525;SDS011;9907;42.676;26.348;2024-03-08T12:59:35;7.87;;;6.13;;
19525;SDS011;9907;42.676;26.348;2024-03-08T13:05:18;7.33;;;6.33;;
19525;SDS011;9907;42.676;26.348;2024-03-08T13:07:46;10.07;;;8.73;;
19525;SDS011;9907;42.676;26.348;2024-03-08T13:10:12;10.60;;;9.20;;
19525;SDS011;9907;42.676;26.348;2024-03-08T13:12:41;12.03;;;9.10;;
19525;SDS011;9907;42.676;26.348;2024-03-08T13:15:07;43.17;;;21.50;;
19525;SDS011;9907;42.676;26.348;2024-03-08T13:17:35;9.37;;;7.13;;
19525;SDS011;9907;42.676;26.348;2024-03-08T13:20:02;8.47;;;7.07;;
19525;SDS011;9907;42.676;26.348;2024-03-08T13:22:30;8.20;;;7.40;;
19525;SDS011;9907;42.676;26.348;2024-03-08T13:25:03;9.33;;;8.30;;
19525;SDS011;9907;42.676;26.348;2024-03-08T13:28:03;8.47;;;7.57;;
19525;SDS011;9907;42.676;26.348;2024-03-08T13:30:29;13.17;;;10.07;;
19525;SDS011;9907;42.676;26.348;2024-03-08T13:32:56;12.67;;;10.10;;
19525;SDS011;9907;42.676;26.348;2024-03-08T13:35:22;10.83;;;9.03;;
19525;SDS011;9907;42.676;26.348;2024-03-08T13:37:52;41.27;;;21.83;;
19525;SDS011;9907;42.676;26.348;2024-03-08T13:40:17;21.90;;;12.47;;
19525;SDS011;9907;42.676;26.348;2024-03-08T13:43:01;20.27;;;11.13;;
19525;SDS011;9907;42.676;26.348;2024-03-08T13:45:49;44.33;;;23.63;;
19525;SDS011;9907;42.676;26.348;2024-03-08T13:51:02;15.43;;;11.63;;
19525;SDS011;9907;42.676;26.348;2024-03-08T13:53:49;26.53;;;16.27;;
19525;SDS011;9907;42.676;26.348;2024-03-08T13:56:15;15.50;;;11.93;;
19525;SDS011;9907;42.676;26.348;2024-03-08T13:58:40;10.33;;;8.20;;
19525;SDS011;9907;42.676;26.348;2024-03-08T14:01:06;8.23;;;7.27;;
19525;SDS011;9907;42.676;26.348;2024-03-08T14:03:36;8.87;;;7.67;;
19525;SDS011;9907;42.676;26.348;2024-03-08T14:06:02;9.33;;;7.87;;
19525;SDS011;9907;42.676;26.348;2024-03-08T14:14:52;7.40;;;5.80;;
19525;SDS011;9907;42.676;26.348;2024-03-08T14:24:17;13.93;;;10.00;;
19525;SDS011;9907;42.676;26.348;2024-03-08T14:29:40;8.40;;;5.63;;
19525;SDS011;9907;42.676;26.348;2024-03-08T14:32:11;6.53;;;5.40;;
19525;SDS011;9907;42.676;26.348;2024-03-08T14:38:01;9.13;;;7.37;;
19525;SDS011;9907;42.676;26.348;2024-03-08T14:40:47;21.27;;;13.60;;
19525;SDS011;9907;42.676;26.348;2024-03-08T14:43:27;15.13;;;11.80;;
19525;SDS011;9907;42.676;26.348;2024-03-08T14:46:05;15.70;;;11.50;;
19525;SDS011;9907;42.676;26.348;2024-03-08T14:48:32;12.73;;;11.43;;
19525;SDS011;9907;42.676;26.348;2024-03-08T14:50:57;10.73;;;9.37;;
19525;SDS011;9907;42.676;26.348;2024-03-08T14:53:26;13.47;;;11.27;;
19525;SDS011;9907;42.676;26.348;2024-03-08T14:55:52;8.93;;;8.03;;
19525;SDS011;9907;42.676;26.348;2024-03-08T14:58:24;15.33;;;11.43;;
19525;SDS011;9907;42.676;26.348;2024-03-08T15:00:53;12.73;;;9.87;;
19525;SDS011;9907;42.676;26.348;2024-03-08T15:03:23;5.17;;;4.67;;
19525;SDS011;9907;42.676;26.348;2024-03-08T15:05:51;4.53;;;3.97;;
19525;SDS011;9907;42.676;26.348;2024-03-08T15:08:19;3.87;;;3.47;;
19525;SDS011;9907;42.676;26.348;2024-03-08T15:10:47;5.23;;;3.50;;
19525;SDS011;9907;42.676;26.348;2024-03-08T15:20:21;11.77;;;6.80;;
19525;SDS011;9907;42.676;26.348;2024-03-08T15:22:54;4.30;;;3.60;;
19525;SDS011;9907;42.676;26.348;2024-03-08T15:25:47;9.03;;;6.10;;
19525;SDS011;9907;42.676;26.348;2024-03-08T15:28:16;8.70;;;7.07;;
19525;SDS011;9907;42.676;26.348;2024-03-08T15:30:44;8.93;;;5.87;;
19525;SDS011;9907;42.676;26.348;2024-03-08T15:34:05;6.27;;;4.87;;
19525;SDS011;9907;42.676;26.348;2024-03-08T15:36:31;6.37;;;5.60;;
19525;SDS011;9907;42.676;26.348;2024-03-08T15:38:59;19.83;;;10.67;;
19525;SDS011;9907;42.676;26.348;2024-03-08T15:41:37;16.23;;;8.03;;
19525;SDS011;9907;42.676;26.348;2024-03-08T15:44:02;11.67;;;6.50;;
19525;SDS011;9907;42.676;26.348;2024-03-08T15:46:31;15.17;;;5.70;;
19525;SDS011;9907;42.676;26.348;2024-03-08T15:49:04;6.07;;;5.33;;
19525;SDS011;9907;42.676;26.348;2024-03-08T15:51:58;6.00;;;4.60;;
19525;SDS011;9907;42.676;26.348;2024-03-08T16:00:21;14.20;;;7.33;;
19525;SDS011;9907;42.676;26.348;2024-03-08T16:06:20;5.87;;;4.13;;
19525;SDS011;9907;42.676;26.348;2024-03-08T16:08:48;7.90;;;5.63;;
19525;SDS011;9907;42.676;26.348;2024-03-08T16:22:52;6.33;;;5.40;;
19525;SDS011;9907;42.676;26.348;2024-03-08T16:25:23;5.93;;;5.07;;
19525;SDS011;9907;42.676;26.348;2024-03-08T16:27:49;5.80;;;5.07;;
19525;SDS011;9907;42.676;26.348;2024-03-08T16:30:34;11.23;;;5.60;;
19525;SDS011;9907;42.676;26.348;2024-03-08T16:33:11;5.30;;;4.47;;
19525;SDS011;9907;42.676;26.348;2024-03-08T16:42:31;9.20;;;7.63;;
19525;SDS011;9907;42.676;26.348;2024-03-08T16:45:03;10.10;;;7.77;;
19525;SDS011;9907;42.676;26.348;2024-03-08T16:47:45;6.97;;;6.00;;
19525;SDS011;9907;42.676;26.348;2024-03-08T16:50:21;20.13;;;12.57;;
19525;SDS011;9907;42.676;26.348;2024-03-08T16:53:03;12.80;;;9.17;;
19525;SDS011;9907;42.676;26.348;2024-03-08T16:55:29;10.27;;;7.57;;
19525;SDS011;9907;42.676;26.348;2024-03-08T16:58:02;8.37;;;6.53;;
19525;SDS011;9907;42.676;26.348;2024-03-08T17:00:52;10.23;;;7.67;;
19525;SDS011;9907;42.676;26.348;2024-03-08T17:03:18;13.43;;;10.27;;
19525;SDS011;9907;42.676;26.348;2024-03-08T17:08:20;12.73;;;7.80;;
19525;SDS011;9907;42.676;26.348;2024-03-08T17:10:46;10.60;;;9.00;;
19525;SDS011;9907;42.676;26.348;2024-03-08T17:13:17;7.23;;;6.33;;
19525;SDS011;9907;42.676;26.348;2024-03-08T17:15:43;9.17;;;7.43;;
19525;SDS011;9907;42.676;26.348;2024-03-08T17:18:11;12.67;;;8.60;;
19525;SDS011;9907;42.676;26.348;2024-03-08T17:20:43;10.37;;;7.90;;
19525;SDS011;9907;42.676;26.348;2024-03-08T17:33:00;7.47;;;5.63;;